createdAt,value
2023-05-03T00:02:27.276Z,14.70
2023-05-03T00:04:55.581Z,14.71
2023-05-03T00:07:23.514Z,14.73
2023-05-03T00:09:51.360Z,14.69
2023-05-03T00:12:20.914Z,14.64
2023-05-03T00:14:48.814Z,14.68
2023-05-03T00:17:16.699Z,14.80
2023-05-03T00:19:45.126Z,14.84
2023-05-03T00:22:13.063Z,14.82
2023-05-03T00:24:40.918Z,14.79
2023-05-03T00:27:08.889Z,14.81
2023-05-03T00:29:38.386Z,14.75
2023-05-03T00:32:06.552Z,14.71
2023-05-03T00:34:34.459Z,14.66
2023-05-03T00:37:02.444Z,14.60
2023-05-03T00:39:31.914Z,14.60
2023-05-03T00:42:00.192Z,14.57
2023-05-03T00:44:28.716Z,14.51
2023-05-03T00:46:58.435Z,14.53
2023-05-03T00:49:26.769Z,14.60
2023-05-03T00:51:55.103Z,14.65
2023-05-03T00:54:23.984Z,14.67
2023-05-03T00:56:52.654Z,14.68
2023-05-03T00:59:21.338Z,14.72
2023-05-03T01:01:50.891Z,14.71
2023-05-03T01:04:21.645Z,14.63
2023-05-03T01:06:59.014Z,14.45
2023-05-03T01:09:36.385Z,14.40
2023-05-03T01:12:15.389Z,14.20
2023-05-03T01:14:50.905Z,14.24
2023-05-03T01:17:25.409Z,14.21
2023-05-03T01:19:59.127Z,14.20
2023-05-03T01:22:38.301Z,14.26
2023-05-03T01:25:10.851Z,14.32
2023-05-03T01:27:41.155Z,14.33
2023-05-03T01:30:11.006Z,14.39
2023-05-03T01:32:51.568Z,14.43
2023-05-03T01:35:26.274Z,14.57
2023-05-03T01:37:56.978Z,14.69
2023-05-03T01:40:28.703Z,14.74
2023-05-03T01:42:58.233Z,14.75
2023-05-03T01:45:26.911Z,14.74
2023-05-03T01:47:57.591Z,14.73
2023-05-03T01:50:25.642Z,14.61
2023-05-03T01:52:53.642Z,14.53
2023-05-03T01:55:21.612Z,14.40
2023-05-03T01:57:50.864Z,14.25
2023-05-03T02:00:19.943Z,14.19
2023-05-03T02:02:47.894Z,14.19
2023-05-03T02:05:15.935Z,14.23
2023-05-03T02:07:43.777Z,14.15
2023-05-03T02:10:14.777Z,14.16
2023-05-03T02:12:43.200Z,14.16
2023-05-03T02:15:14.060Z,14.14
2023-05-03T02:17:45.577Z,14.13
2023-05-03T02:20:13.801Z,14.13
2023-05-03T02:22:42.225Z,14.12
2023-05-03T02:25:10.548Z,14.18
2023-05-03T02:27:38.831Z,14.36
2023-05-03T02:30:08.145Z,14.53
2023-05-03T02:32:42.800Z,14.65
2023-05-03T02:35:11.751Z,14.72
2023-05-03T02:37:39.638Z,14.78
2023-05-03T02:40:12.607Z,14.82
2023-05-03T02:42:42.008Z,14.82
2023-05-03T02:45:10.811Z,14.83
2023-05-03T02:47:38.889Z,14.88
2023-05-03T02:50:09.340Z,14.94
2023-05-03T02:52:40.345Z,14.93
2023-05-03T02:55:08.930Z,14.94
2023-05-03T02:57:37.586Z,14.97
2023-05-03T03:00:10.337Z,15.01
2023-05-03T03:02:38.447Z,15.01
2023-05-03T03:05:09.263Z,15.00
2023-05-03T03:07:39.184Z,14.95
2023-05-03T03:10:08.325Z,14.85
2023-05-03T03:12:37.181Z,14.75
2023-05-03T03:15:09.171Z,14.73
2023-05-03T03:17:39.016Z,14.69
2023-05-03T03:20:12.913Z,14.62
2023-05-03T03:22:45.566Z,14.60
2023-05-03T03:25:13.768Z,14.47
2023-05-03T03:27:41.776Z,14.39
2023-05-03T03:30:10.569Z,14.39
2023-05-03T03:32:47.148Z,14.42
2023-05-03T03:35:25.297Z,14.46
2023-05-03T03:37:53.691Z,14.47
2023-05-03T03:40:23.667Z,14.53
2023-05-03T03:42:54.242Z,14.58
2023-05-03T03:45:22.152Z,14.54
2023-05-03T03:47:52.274Z,14.40
2023-05-03T03:50:25.837Z,14.31
2023-05-03T03:52:53.750Z,14.27
2023-05-03T03:55:22.243Z,14.32
2023-05-03T03:57:53.527Z,14.23
2023-05-03T04:00:23.002Z,14.14
2023-05-03T04:02:59.318Z,14.08
2023-05-03T04:05:28.831Z,14.03
2023-05-03T04:07:56.821Z,14.01
2023-05-03T04:10:26.585Z,14.01
2023-05-03T04:12:55.671Z,14.05
2023-05-03T04:15:23.988Z,14.02
2023-05-03T04:17:52.854Z,13.98
2023-05-03T04:20:21.555Z,13.96
2023-05-03T04:22:52.313Z,13.99
2023-05-03T04:25:25.717Z,14.03
2023-05-03T04:27:59.998Z,13.98
2023-05-03T04:30:29.847Z,13.92
2023-05-03T04:33:01.335Z,13.91
2023-05-03T04:35:31.315Z,13.99
2023-05-03T04:38:04.611Z,14.01
2023-05-03T04:40:34.699Z,14.07
2023-05-03T04:43:07.711Z,14.06
2023-05-03T04:45:39.450Z,13.97
2023-05-03T04:48:10.248Z,13.87
2023-05-03T04:50:38.253Z,13.77
2023-05-03T04:53:10.756Z,13.71
2023-05-03T04:55:42.765Z,13.63
2023-05-03T04:58:11.423Z,13.67
2023-05-03T05:00:40.658Z,13.68
2023-05-03T05:03:14.062Z,13.70
2023-05-03T05:05:42.154Z,13.69
2023-05-03T05:08:13.540Z,13.71
2023-05-03T05:10:49.053Z,13.73
2023-05-03T05:13:21.749Z,13.74
2023-05-03T05:15:49.706Z,13.78
2023-05-03T05:18:18.484Z,13.93
2023-05-03T05:20:47.281Z,14.06
2023-05-03T05:23:18.074Z,14.12
2023-05-03T05:25:48.702Z,14.01
2023-05-03T05:28:16.906Z,13.89
2023-05-03T05:30:47.475Z,13.83
2023-05-03T05:33:16.789Z,13.75
2023-05-03T05:35:48.120Z,13.72
2023-05-03T05:38:18.537Z,13.65
2023-05-03T05:40:46.516Z,13.68
2023-05-03T05:43:14.536Z,13.66
2023-05-03T05:45:45.843Z,13.72
2023-05-03T05:48:15.351Z,13.70
2023-05-03T05:50:44.656Z,13.62
2023-05-03T05:53:14.658Z,13.59
2023-05-03T05:55:50.092Z,13.63
2023-05-03T05:58:18.052Z,13.66
2023-05-03T06:00:51.185Z,13.63
2023-05-03T06:03:19.638Z,13.63
2023-05-03T06:05:50.405Z,13.54
2023-05-03T06:08:18.315Z,13.63
2023-05-03T06:10:46.238Z,13.66
2023-05-03T06:13:15.545Z,13.70
2023-05-03T06:15:44.689Z,13.69
2023-05-03T06:18:12.669Z,13.74
2023-05-03T06:20:41.031Z,13.74
2023-05-03T06:23:08.920Z,13.77
2023-05-03T06:25:39.252Z,13.81
2023-05-03T06:28:07.451Z,13.82
2023-05-03T06:30:38.188Z,13.85
2023-05-03T06:33:14.588Z,13.86
2023-05-03T06:35:44.329Z,13.95
2023-05-03T06:38:12.880Z,14.06
2023-05-03T06:40:41.375Z,14.27
2023-05-03T06:43:09.430Z,14.43
2023-05-03T06:45:45.303Z,14.57
2023-05-03T06:48:13.334Z,14.68
2023-05-03T06:50:41.297Z,14.80
2023-05-03T06:53:09.865Z,14.85
2023-05-03T06:55:37.784Z,14.84
2023-05-03T06:58:10.008Z,14.82
2023-05-03T07:00:39.164Z,14.91
2023-05-03T07:03:08.562Z,15.01
2023-05-03T07:05:36.684Z,14.93
2023-05-03T07:08:04.882Z,15.00
2023-05-03T07:10:32.731Z,15.04
2023-05-03T07:13:00.629Z,14.96
2023-05-03T07:15:28.462Z,14.78
2023-05-03T07:17:56.369Z,14.67
2023-05-03T07:20:26.362Z,14.48
2023-05-03T07:22:54.226Z,14.25
2023-05-03T07:25:22.172Z,14.14
2023-05-03T07:27:50.251Z,14.02
2023-05-03T07:30:18.808Z,13.94
2023-05-03T07:32:46.967Z,13.87
2023-05-03T07:35:16.723Z,13.88
2023-05-03T07:37:46.005Z,13.82
2023-05-03T07:40:14.075Z,13.78
2023-05-03T07:42:42.027Z,13.73
2023-05-03T07:45:10.984Z,13.67
2023-05-03T07:47:40.174Z,13.64
2023-05-03T07:50:09.325Z,13.47
2023-05-03T07:52:38.130Z,13.53
2023-05-03T07:55:08.833Z,13.48
2023-05-03T07:57:36.825Z,13.44
2023-05-03T08:00:06.321Z,13.43
2023-05-03T08:02:40.607Z,13.52
2023-05-03T08:05:09.936Z,13.57
2023-05-03T08:07:38.023Z,13.55
2023-05-03T08:10:08.522Z,13.57
2023-05-03T08:12:37.437Z,13.65
2023-05-03T08:15:07.002Z,13.83
2023-05-03T08:17:41.390Z,14.03
2023-05-03T08:20:10.732Z,14.13
2023-05-03T08:22:40.515Z,14.13
2023-05-03T08:25:11.232Z,14.10
2023-05-03T08:27:40.074Z,14.06
2023-05-03T08:30:09.535Z,14.16
2023-05-03T08:32:37.566Z,14.20
2023-05-03T08:35:07.503Z,14.19
2023-05-03T08:37:41.719Z,14.24
2023-05-03T08:40:13.787Z,14.37
2023-05-03T08:42:42.687Z,14.32
2023-05-03T08:45:12.813Z,14.39
2023-05-03T08:47:41.779Z,14.34
2023-05-03T08:50:11.016Z,14.36
2023-05-03T08:52:40.756Z,14.54
2023-05-03T08:55:09.237Z,14.62
2023-05-03T08:57:38.766Z,14.64
2023-05-03T09:00:10.602Z,14.66
2023-05-03T09:02:39.886Z,14.82
2023-05-03T09:05:35.829Z,14.92
2023-05-03T09:08:05.484Z,14.96
2023-05-03T09:10:34.124Z,15.17
2023-05-03T09:13:04.005Z,15.30
2023-05-03T09:15:32.489Z,15.42
2023-05-03T09:18:16.085Z,15.40
2023-05-03T09:20:51.389Z,15.42
2023-05-03T09:23:29.732Z,15.50
2023-05-03T09:25:58.711Z,15.59
2023-05-03T09:28:28.168Z,15.68
2023-05-03T09:31:07.115Z,15.76
2023-05-03T09:33:35.095Z,15.96
2023-05-03T09:36:04.691Z,16.22
2023-05-03T09:38:34.834Z,16.27
2023-05-03T09:41:02.984Z,16.45
2023-05-03T09:43:32.484Z,16.61
2023-05-03T09:46:10.989Z,16.70
2023-05-03T09:48:39.273Z,16.56
2023-05-03T09:51:08.278Z,16.42
2023-05-03T09:53:38.260Z,16.43
2023-05-03T09:56:09.070Z,16.24
2023-05-03T09:58:39.107Z,16.28
2023-05-03T10:01:07.917Z,16.32
2023-05-03T10:03:40.919Z,16.30
2023-05-03T10:06:20.769Z,16.31
2023-05-03T10:08:51.494Z,16.44
2023-05-03T10:11:19.695Z,16.36
2023-05-03T10:13:49.105Z,16.19
2023-05-03T10:16:25.057Z,16.31
2023-05-03T10:18:57.646Z,16.61
2023-05-03T10:21:34.549Z,16.58
2023-05-03T10:24:13.075Z,16.85
2023-05-03T10:26:46.861Z,16.75
2023-05-03T10:29:54.812Z,16.81
2023-05-03T10:32:30.681Z,16.83
2023-05-03T10:35:00.689Z,16.72
2023-05-03T10:37:31.724Z,16.75
2023-05-03T10:40:07.080Z,17.02
2023-05-03T10:42:34.972Z,17.14
2023-05-03T10:45:04.910Z,17.14
2023-05-03T10:47:33.058Z,17.28
2023-05-03T10:50:26.682Z,17.45
2023-05-03T10:52:54.913Z,17.80
2023-05-03T10:55:25.926Z,18.13
2023-05-03T10:57:58.902Z,18.23
2023-05-03T11:00:37.473Z,18.38
2023-05-03T11:03:12.646Z,18.22
2023-05-03T11:05:41.095Z,18.20
2023-05-03T11:08:10.496Z,18.12
2023-05-03T11:10:38.495Z,18.18
2023-05-03T11:13:06.677Z,18.13
2023-05-03T11:15:36.359Z,17.62
2023-05-03T11:18:05.972Z,17.45
2023-05-03T11:20:34.310Z,17.29
2023-05-03T11:23:02.764Z,17.27
2023-05-03T11:25:30.901Z,17.17
2023-05-03T11:27:58.772Z,17.24
2023-05-03T11:30:27.695Z,17.00
2023-05-03T11:32:57.282Z,16.84
2023-05-03T11:35:26.967Z,16.92
2023-05-03T11:37:54.911Z,16.90
2023-05-03T11:40:23.026Z,16.82
2023-05-03T11:42:55.963Z,16.64
2023-05-03T11:45:25.701Z,16.47
2023-05-03T11:47:54.784Z,16.39
2023-05-03T11:50:45.597Z,16.34
2023-05-03T11:53:14.008Z,16.39
2023-05-03T11:55:43.293Z,16.57
2023-05-03T11:58:15.646Z,16.55
2023-05-03T12:00:45.259Z,16.53
2023-05-03T12:03:18.466Z,16.43
2023-05-03T12:05:49.751Z,16.27
2023-05-03T12:08:21.075Z,16.17
2023-05-03T12:10:53.473Z,16.30
2023-05-03T12:13:29.893Z,16.46
2023-05-03T12:16:11.065Z,16.31
2023-05-03T12:18:56.116Z,16.29
2023-05-03T12:23:57.770Z,15.92
2023-05-03T12:26:27.310Z,15.88
2023-05-03T12:28:56.864Z,15.84
2023-05-03T12:31:28.634Z,15.79
2023-05-03T12:34:20.120Z,15.82
2023-05-03T12:36:48.767Z,15.87
2023-05-03T12:39:20.185Z,15.95
2023-05-03T12:42:06.135Z,15.84
2023-05-03T12:44:35.690Z,15.81
2023-05-03T12:47:04.386Z,15.76
2023-05-03T12:49:32.965Z,15.78
2023-05-03T12:52:34.764Z,15.74
2023-05-03T12:54:54.119Z,15.76
2023-05-03T12:57:24.570Z,15.89
2023-05-03T13:00:01.907Z,15.93
2023-05-03T13:05:11.891Z,15.99
2023-05-03T13:07:55.764Z,16.07
2023-05-03T13:10:24.575Z,16.08
2023-05-03T13:12:54.162Z,16.03
2023-05-03T13:15:25.263Z,15.87
2023-05-03T13:17:54.379Z,15.96
2023-05-03T13:20:22.627Z,16.04
2023-05-03T13:22:52.009Z,16.10
2023-05-03T13:25:19.933Z,16.00
2023-05-03T13:27:50.323Z,15.96
2023-05-03T13:30:18.268Z,15.91
2023-05-03T13:32:46.274Z,15.93
2023-05-03T13:35:14.436Z,15.84
2023-05-03T13:37:42.340Z,15.69
2023-05-03T13:40:14.590Z,15.79
2023-05-03T13:42:42.596Z,15.91
2023-05-03T13:45:11.425Z,15.91
2023-05-03T13:47:59.467Z,15.79
2023-05-03T13:50:30.051Z,15.76
2023-05-03T13:52:58.015Z,15.74
2023-05-03T13:55:27.650Z,15.77
2023-05-03T13:57:55.603Z,15.67
2023-05-03T14:00:23.912Z,15.54
2023-05-03T14:02:52.619Z,15.42
2023-05-03T14:05:20.911Z,15.43
2023-05-03T14:07:48.798Z,15.41
2023-05-03T14:10:16.871Z,15.41
2023-05-03T14:12:46.306Z,15.41
2023-05-03T14:15:14.992Z,15.43
2023-05-03T14:17:43.580Z,15.45
2023-05-03T14:20:12.382Z,15.43
2023-05-03T14:22:40.445Z,15.43
2023-05-03T14:25:09.637Z,15.40
2023-05-03T14:27:37.616Z,15.31
2023-05-03T14:30:10.456Z,15.31
2023-05-03T14:32:38.422Z,15.40
2023-05-03T14:35:07.521Z,15.33
2023-05-03T14:37:36.697Z,15.44
2023-05-03T14:40:05.828Z,15.39
2023-05-03T14:42:33.945Z,15.38
2023-05-03T14:45:02.309Z,15.36
2023-05-03T14:47:34.391Z,15.45
2023-05-03T14:50:02.707Z,15.58
2023-05-03T14:52:30.841Z,15.62
2023-05-03T14:54:58.716Z,15.66
2023-05-03T14:57:26.675Z,15.72
2023-05-03T14:59:54.780Z,15.64
2023-05-03T15:02:22.962Z,15.51
2023-05-03T15:04:52.547Z,15.53
2023-05-03T15:07:20.887Z,15.67
2023-05-03T15:09:48.846Z,15.81
2023-05-03T15:12:17.380Z,15.92
2023-05-03T15:14:45.301Z,16.09
2023-05-03T15:17:13.405Z,16.06
2023-05-03T15:19:41.693Z,16.09
2023-05-03T15:22:11.033Z,16.14
2023-05-03T15:24:39.031Z,16.16
2023-05-03T15:27:07.532Z,16.22
2023-05-03T15:29:35.939Z,16.15
2023-05-03T15:32:03.895Z,16.04
2023-05-03T15:34:33.004Z,16.00
2023-05-03T15:37:00.943Z,16.00
2023-05-03T15:39:30.173Z,15.91
2023-05-03T15:41:58.082Z,15.90
2023-05-03T15:44:25.914Z,15.87
2023-05-03T15:46:53.895Z,15.79
2023-05-03T15:49:22.424Z,15.76
2023-05-03T15:51:50.241Z,15.76
2023-05-03T15:54:18.765Z,15.76
2023-05-03T15:56:50.688Z,15.69
2023-05-03T15:59:18.866Z,15.69
2023-05-03T16:01:47.352Z,15.56
2023-05-03T16:04:15.407Z,15.47
2023-05-03T16:06:43.260Z,15.43
2023-05-03T16:09:12.474Z,15.22
2023-05-03T16:11:40.383Z,15.25
2023-05-03T16:14:10.614Z,15.19
2023-05-03T16:16:38.765Z,15.13
2023-05-03T16:19:08.786Z,15.08
2023-05-03T16:21:36.685Z,15.01
2023-05-03T16:24:05.023Z,14.90
2023-05-03T16:26:34.505Z,14.93
2023-05-03T16:29:02.411Z,14.83
2023-05-03T16:31:32.386Z,14.84
2023-05-03T16:34:00.328Z,14.80
2023-05-03T16:36:28.269Z,14.80
2023-05-03T16:38:56.171Z,14.80
2023-05-03T16:41:24.299Z,14.77
2023-05-03T16:43:52.676Z,14.68
2023-05-03T16:46:21.021Z,14.63
2023-05-03T16:48:51.900Z,14.62
2023-05-03T16:51:21.741Z,14.64
2023-05-03T16:53:49.713Z,14.63
2023-05-03T16:56:17.607Z,14.54
2023-05-03T16:58:45.554Z,14.37
2023-05-03T17:01:13.558Z,14.47
2023-05-03T17:03:42.659Z,14.44
2023-05-03T17:06:12.705Z,14.36
2023-05-03T17:08:40.818Z,14.31
2023-05-03T17:11:09.912Z,14.30
2023-05-03T17:13:37.815Z,14.27
2023-05-03T17:16:08.665Z,14.24
2023-05-03T17:18:37.660Z,14.24
2023-05-03T17:21:05.858Z,14.19
2023-05-03T17:23:36.234Z,14.21
2023-05-03T17:26:05.196Z,14.19
2023-05-03T17:28:33.513Z,14.15
2023-05-03T17:31:02.550Z,14.14
2023-05-03T17:33:30.752Z,14.12
2023-05-03T17:36:00.657Z,14.04
2023-05-03T17:38:28.760Z,14.04
2023-05-03T17:40:58.017Z,14.01
2023-05-03T17:43:26.228Z,14.01
2023-05-03T17:45:54.151Z,13.91
2023-05-03T17:48:22.179Z,13.96
2023-05-03T17:50:58.459Z,13.92
2023-05-03T17:53:26.507Z,13.87
2023-05-03T17:55:54.558Z,13.84
2023-05-03T17:58:23.818Z,13.77
2023-05-03T18:00:52.550Z,13.69
2023-05-03T18:03:20.777Z,13.61
2023-05-03T18:05:49.243Z,13.55
2023-05-03T18:08:17.174Z,13.49
2023-05-03T18:10:45.233Z,13.48
2023-05-03T18:13:13.530Z,13.39
2023-05-03T18:15:42.886Z,13.32
2023-05-03T18:18:10.764Z,13.31
2023-05-03T18:20:38.642Z,13.30
2023-05-03T18:23:06.534Z,13.26
2023-05-03T18:25:34.400Z,13.24
2023-05-03T18:28:03.226Z,13.19
2023-05-03T18:30:32.499Z,13.22
2023-05-03T18:33:02.186Z,13.11
2023-05-03T18:35:30.733Z,13.20
2023-05-03T18:37:58.639Z,13.22
2023-05-03T18:40:26.782Z,13.15
2023-05-03T18:42:54.640Z,13.15
2023-05-03T18:45:22.964Z,13.18
2023-05-03T18:47:51.174Z,13.17
2023-05-03T18:50:20.582Z,13.16
2023-05-03T18:52:50.466Z,13.15
2023-05-03T18:55:18.474Z,13.14
2023-05-03T18:57:46.439Z,13.11
2023-05-03T19:00:17.937Z,13.11
2023-05-03T19:02:46.189Z,13.10
2023-05-03T19:05:15.457Z,12.99
2023-05-03T19:07:47.073Z,12.99
2023-05-03T19:10:16.341Z,12.93
2023-05-03T19:12:44.766Z,12.92
2023-05-03T19:15:12.973Z,12.92
2023-05-03T19:17:41.832Z,12.89
2023-05-03T19:20:12.032Z,12.87
2023-05-03T19:22:40.088Z,12.84
2023-05-03T19:25:10.034Z,12.82
2023-05-03T19:27:37.852Z,12.82
2023-05-03T19:30:07.062Z,12.69
2023-05-03T19:32:39.236Z,12.78
2023-05-03T19:35:09.489Z,12.78
2023-05-03T19:37:37.498Z,12.71
2023-05-03T19:40:07.151Z,12.65
2023-05-03T19:42:36.663Z,12.65
2023-05-03T19:45:04.880Z,12.62
2023-05-03T19:47:34.018Z,12.60
2023-05-03T19:50:02.353Z,12.54
2023-05-03T19:52:31.622Z,12.54
2023-05-03T19:54:59.564Z,12.51
2023-05-03T19:57:27.405Z,12.46
2023-05-03T19:59:56.669Z,12.49
2023-05-03T20:02:25.249Z,12.47
2023-05-03T20:04:53.269Z,12.44
2023-05-03T20:07:21.282Z,12.43
2023-05-03T20:09:49.403Z,12.39
2023-05-03T20:12:17.449Z,12.40
2023-05-03T20:14:46.030Z,12.37
2023-05-03T20:17:15.878Z,12.32
2023-05-03T20:19:43.853Z,12.31
2023-05-03T20:22:12.293Z,12.27
2023-05-03T20:24:40.208Z,12.26
2023-05-03T20:27:08.148Z,12.24
2023-05-03T20:29:36.069Z,12.22
2023-05-03T20:32:04.002Z,12.18
2023-05-03T20:34:33.380Z,12.18
2023-05-03T20:37:01.330Z,12.14
2023-05-03T20:39:29.742Z,12.11
2023-05-03T20:41:58.290Z,12.08
2023-05-03T20:44:26.254Z,12.07
2023-05-03T20:46:54.175Z,12.07
2023-05-03T20:49:22.068Z,12.08
2023-05-03T20:51:51.317Z,12.09
2023-05-03T20:54:19.215Z,12.06
2023-05-03T20:56:47.038Z,12.07
2023-05-03T20:59:14.867Z,12.08
2023-05-03T21:01:42.783Z,12.07
2023-05-03T21:04:10.638Z,12.07
2023-05-03T21:06:38.626Z,12.03
2023-05-03T21:09:07.898Z,12.02
2023-05-03T21:11:35.716Z,11.99
2023-05-03T21:14:03.596Z,11.93
2023-05-03T21:16:31.793Z,11.90
2023-05-03T21:18:59.699Z,11.87
2023-05-03T21:21:27.622Z,11.85
2023-05-03T21:23:55.507Z,11.86
2023-05-03T21:26:25.046Z,11.89
2023-05-03T21:28:52.944Z,11.92
2023-05-03T21:31:20.969Z,11.92
2023-05-03T21:33:48.875Z,11.91
2023-05-03T21:36:16.981Z,11.93
2023-05-03T21:38:44.881Z,11.94
2023-05-03T21:41:13.638Z,11.97
2023-05-03T21:43:43.031Z,12.02
2023-05-03T21:46:11.149Z,12.14
2023-05-03T21:48:40.292Z,12.31
2023-05-03T21:51:08.539Z,12.39
2023-05-03T21:53:36.556Z,12.46
2023-05-03T21:56:04.694Z,12.49
2023-05-03T21:58:32.562Z,12.49
2023-05-03T22:01:01.834Z,12.37
2023-05-03T22:03:29.931Z,12.45
2023-05-03T22:05:57.871Z,12.48
2023-05-03T22:08:25.929Z,12.48
2023-05-03T22:10:56.079Z,12.50
2023-05-03T22:13:23.983Z,12.48
2023-05-03T22:15:51.924Z,12.52
2023-05-03T22:18:21.128Z,12.51
2023-05-03T22:20:49.024Z,12.46
2023-05-03T22:23:17.091Z,12.46
2023-05-03T22:25:44.988Z,12.40
2023-05-03T22:28:12.891Z,12.39
2023-05-03T22:30:40.806Z,12.41
2023-05-03T22:33:08.709Z,12.42
2023-05-03T22:35:37.968Z,12.42
2023-05-03T22:38:06.390Z,12.38
2023-05-03T22:40:34.495Z,12.40
2023-05-03T22:43:02.680Z,12.41
2023-05-03T22:45:30.670Z,12.40
2023-05-03T22:47:58.731Z,12.36
2023-05-03T22:50:27.058Z,12.35
2023-05-03T22:52:56.338Z,12.31
2023-05-03T22:55:24.231Z,12.32
2023-05-03T22:57:52.110Z,12.32
2023-05-03T23:00:21.634Z,12.33
2023-05-03T23:02:49.809Z,12.32
2023-05-03T23:05:17.738Z,12.29
2023-05-03T23:07:45.617Z,12.25
2023-05-03T23:10:14.789Z,12.23
2023-05-03T23:12:42.754Z,12.21
2023-05-03T23:15:11.913Z,12.18
2023-05-03T23:17:40.006Z,12.16
2023-05-03T23:20:10.074Z,12.10
2023-05-03T23:22:40.730Z,12.09
2023-05-03T23:25:09.664Z,12.10
2023-05-03T23:27:38.920Z,12.12
2023-05-03T23:30:09.042Z,12.08
2023-05-03T23:32:37.573Z,12.03
2023-05-03T23:35:07.371Z,12.02
2023-05-03T23:37:35.214Z,12.04
2023-05-03T23:40:03.739Z,12.07
2023-05-03T23:42:31.814Z,12.06
2023-05-03T23:45:01.071Z,12.06
2023-05-03T23:47:29.009Z,12.04
2023-05-03T23:49:56.951Z,12.02
2023-05-03T23:52:24.840Z,11.99
2023-05-03T23:54:53.410Z,11.99
2023-05-03T23:57:21.493Z,11.97
2023-05-03T23:59:49.359Z,11.97
